sensor_id;sensor_type;location;lat;lon;timestamp;P1;durP1;ratioP1;P2;durP2;ratioP2
64615;SDS011;51027;42.162;24.754;2022-09-09T00:09:28;17.40;;;8.13;;
64615;SDS011;51027;42.162;24.754;2022-09-09T00:12:02;18.20;;;8.68;;
64615;SDS011;51027;42.162;24.754;2022-09-09T00:14:54;18.13;;;8.65;;
64615;SDS011;51027;42.162;24.754;2022-09-09T00:17:33;18.17;;;9.10;;
64615;SDS011;51027;42.162;24.754;2022-09-09T00:20:43;19.60;;;9.68;;
64615;SDS011;51027;42.162;24.754;2022-09-09T00:23:14;17.40;;;8.93;;
64615;SDS011;51027;42.162;24.754;2022-09-09T00:28:49;21.10;;;9.77;;
64615;SDS011;51027;42.162;24.754;2022-09-09T00:31:24;16.83;;;9.00;;
64615;SDS011;51027;42.162;24.754;2022-09-09T00:33:53;17.83;;;9.02;;
64615;SDS011;51027;42.162;24.754;2022-09-09T00:36:23;19.20;;;9.00;;
64615;SDS011;51027;42.162;24.754;2022-09-09T00:38:52;19.00;;;9.07;;
64615;SDS011;51027;42.162;24.754;2022-09-09T00:43:57;19.10;;;9.43;;
64615;SDS011;51027;42.162;24.754;2022-09-09T01:04:58;19.02;;;10.25;;
64615;SDS011;51027;42.162;24.754;2022-09-09T01:07:33;19.05;;;9.75;;
64615;SDS011;51027;42.162;24.754;2022-09-09T01:09:59;19.15;;;9.63;;
64615;SDS011;51027;42.162;24.754;2022-09-09T01:15:10;21.02;;;10.82;;
64615;SDS011;51027;42.162;24.754;2022-09-09T01:17:46;18.15;;;9.88;;
64615;SDS011;51027;42.162;24.754;2022-09-09T01:20:24;19.90;;;9.68;;
64615;SDS011;51027;42.162;24.754;2022-09-09T01:28:35;21.00;;;9.00;;
64615;SDS011;51027;42.162;24.754;2022-09-09T01:31:02;16.75;;;8.48;;
64615;SDS011;51027;42.162;24.754;2022-09-09T01:33:30;18.93;;;9.63;;
64615;SDS011;51027;42.162;24.754;2022-09-09T01:36:38;17.65;;;8.98;;
64615;SDS011;51027;42.162;24.754;2022-09-09T01:38:56;19.83;;;8.55;;
64615;SDS011;51027;42.162;24.754;2022-09-09T01:41:22;19.48;;;9.60;;
64615;SDS011;51027;42.162;24.754;2022-09-09T01:43:48;17.67;;;8.80;;
64615;SDS011;51027;42.162;24.754;2022-09-09T01:46:14;17.60;;;8.48;;
64615;SDS011;51027;42.162;24.754;2022-09-09T01:48:40;17.38;;;8.77;;
64615;SDS011;51027;42.162;24.754;2022-09-09T01:51:07;19.60;;;9.40;;
64615;SDS011;51027;42.162;24.754;2022-09-09T01:53:35;18.97;;;9.23;;
64615;SDS011;51027;42.162;24.754;2022-09-09T02:04:41;21.70;;;9.38;;
64615;SDS011;51027;42.162;24.754;2022-09-09T02:07:12;19.65;;;9.25;;
64615;SDS011;51027;42.162;24.754;2022-09-09T02:09:48;17.88;;;9.57;;
64615;SDS011;51027;42.162;24.754;2022-09-09T02:12:21;20.10;;;8.60;;
64615;SDS011;51027;42.162;24.754;2022-09-09T02:14:51;18.65;;;9.02;;
64615;SDS011;51027;42.162;24.754;2022-09-09T02:17:28;15.98;;;7.90;;
64615;SDS011;51027;42.162;24.754;2022-09-09T02:20:00;17.38;;;8.18;;
64615;SDS011;51027;42.162;24.754;2022-09-09T02:22:37;18.52;;;7.88;;
64615;SDS011;51027;42.162;24.754;2022-09-09T02:25:07;15.80;;;7.35;;
64615;SDS011;51027;42.162;24.754;2022-09-09T02:27:35;16.17;;;7.25;;
64615;SDS011;51027;42.162;24.754;2022-09-09T02:30:03;19.27;;;7.88;;
64615;SDS011;51027;42.162;24.754;2022-09-09T02:32:29;17.73;;;8.27;;
64615;SDS011;51027;42.162;24.754;2022-09-09T02:37:32;18.92;;;8.23;;
64615;SDS011;51027;42.162;24.754;2022-09-09T02:40:05;17.83;;;8.20;;
64615;SDS011;51027;42.162;24.754;2022-09-09T02:42:38;17.08;;;8.35;;
64615;SDS011;51027;42.162;24.754;2022-09-09T02:45:07;19.73;;;9.35;;
64615;SDS011;51027;42.162;24.754;2022-09-09T02:47:35;21.45;;;8.88;;
64615;SDS011;51027;42.162;24.754;2022-09-09T02:51:08;17.95;;;8.80;;
64615;SDS011;51027;42.162;24.754;2022-09-09T02:55:54;18.70;;;9.20;;
64615;SDS011;51027;42.162;24.754;2022-09-09T02:58:27;18.73;;;8.90;;
64615;SDS011;51027;42.162;24.754;2022-09-09T03:00:53;19.50;;;10.63;;
64615;SDS011;51027;42.162;24.754;2022-09-09T03:03:19;20.33;;;9.85;;
64615;SDS011;51027;42.162;24.754;2022-09-09T03:05:45;18.42;;;9.43;;
64615;SDS011;51027;42.162;24.754;2022-09-09T03:08:11;17.58;;;8.05;;
64615;SDS011;51027;42.162;24.754;2022-09-09T03:10:38;16.38;;;8.23;;
64615;SDS011;51027;42.162;24.754;2022-09-09T03:13:03;19.48;;;10.43;;
64615;SDS011;51027;42.162;24.754;2022-09-09T03:15:30;18.52;;;8.90;;
64615;SDS011;51027;42.162;24.754;2022-09-09T03:17:57;21.13;;;8.80;;
64615;SDS011;51027;42.162;24.754;2022-09-09T03:20:24;18.65;;;8.45;;
64615;SDS011;51027;42.162;24.754;2022-09-09T03:22:51;19.08;;;9.18;;
64615;SDS011;51027;42.162;24.754;2022-09-09T03:25:17;19.58;;;8.65;;
64615;SDS011;51027;42.162;24.754;2022-09-09T03:27:43;20.90;;;8.70;;
64615;SDS011;51027;42.162;24.754;2022-09-09T03:30:08;21.25;;;9.50;;
64615;SDS011;51027;42.162;24.754;2022-09-09T03:32:34;17.85;;;9.32;;
64615;SDS011;51027;42.162;24.754;2022-09-09T03:35:00;26.25;;;10.45;;
64615;SDS011;51027;42.162;24.754;2022-09-09T03:37:25;23.27;;;10.70;;
64615;SDS011;51027;42.162;24.754;2022-09-09T03:39:51;21.52;;;10.20;;
64615;SDS011;51027;42.162;24.754;2022-09-09T03:42:19;22.35;;;11.95;;
64615;SDS011;51027;42.162;24.754;2022-09-09T03:44:45;20.67;;;12.90;;
64615;SDS011;51027;42.162;24.754;2022-09-09T03:47:19;21.80;;;12.60;;
64615;SDS011;51027;42.162;24.754;2022-09-09T03:49:46;24.80;;;12.75;;
64615;SDS011;51027;42.162;24.754;2022-09-09T03:52:13;26.98;;;13.40;;
64615;SDS011;51027;42.162;24.754;2022-09-09T03:54:39;24.02;;;12.45;;
64615;SDS011;51027;42.162;24.754;2022-09-09T03:57:06;25.98;;;12.18;;
64615;SDS011;51027;42.162;24.754;2022-09-09T03:59:31;22.20;;;11.65;;
64615;SDS011;51027;42.162;24.754;2022-09-09T04:01:57;21.60;;;11.90;;
64615;SDS011;51027;42.162;24.754;2022-09-09T04:04:24;19.73;;;9.98;;
64615;SDS011;51027;42.162;24.754;2022-09-09T04:06:49;19.45;;;10.27;;
64615;SDS011;51027;42.162;24.754;2022-09-09T04:09:16;19.73;;;9.40;;
64615;SDS011;51027;42.162;24.754;2022-09-09T04:11:41;19.92;;;10.07;;
64615;SDS011;51027;42.162;24.754;2022-09-09T04:14:06;20.25;;;10.73;;
64615;SDS011;51027;42.162;24.754;2022-09-09T04:16:32;20.35;;;10.70;;
64615;SDS011;51027;42.162;24.754;2022-09-09T04:18:58;25.42;;;11.45;;
64615;SDS011;51027;42.162;24.754;2022-09-09T04:21:25;24.73;;;13.07;;
64615;SDS011;51027;42.162;24.754;2022-09-09T04:23:51;21.70;;;12.10;;
64615;SDS011;51027;42.162;24.754;2022-09-09T04:26:16;25.60;;;12.95;;
64615;SDS011;51027;42.162;24.754;2022-09-09T04:28:42;27.92;;;13.30;;
64615;SDS011;51027;42.162;24.754;2022-09-09T04:31:09;21.70;;;11.88;;
64615;SDS011;51027;42.162;24.754;2022-09-09T04:33:39;22.10;;;12.15;;
64615;SDS011;51027;42.162;24.754;2022-09-09T04:36:05;20.52;;;12.20;;
64615;SDS011;51027;42.162;24.754;2022-09-09T04:38:31;20.52;;;11.15;;
64615;SDS011;51027;42.162;24.754;2022-09-09T04:40:56;18.92;;;10.75;;
64615;SDS011;51027;42.162;24.754;2022-09-09T04:43:22;24.08;;;10.70;;
64615;SDS011;51027;42.162;24.754;2022-09-09T04:45:48;19.23;;;10.30;;
64615;SDS011;51027;42.162;24.754;2022-09-09T04:48:14;23.42;;;12.00;;
64615;SDS011;51027;42.162;24.754;2022-09-09T04:50:40;19.33;;;9.90;;
64615;SDS011;51027;42.162;24.754;2022-09-09T04:53:06;18.92;;;10.85;;
64615;SDS011;51027;42.162;24.754;2022-09-09T04:55:32;26.63;;;11.68;;
64615;SDS011;51027;42.162;24.754;2022-09-09T04:58:05;22.20;;;12.90;;
64615;SDS011;51027;42.162;24.754;2022-09-09T05:00:31;25.02;;;13.75;;
64615;SDS011;51027;42.162;24.754;2022-09-09T05:03:02;22.23;;;13.35;;
64615;SDS011;51027;42.162;24.754;2022-09-09T05:05:29;22.25;;;13.30;;
64615;SDS011;51027;42.162;24.754;2022-09-09T05:08:00;21.27;;;13.15;;
64615;SDS011;51027;42.162;24.754;2022-09-09T05:10:26;21.48;;;11.80;;
64615;SDS011;51027;42.162;24.754;2022-09-09T05:12:52;22.27;;;11.73;;
64615;SDS011;51027;42.162;24.754;2022-09-09T05:15:18;21.88;;;12.45;;
64615;SDS011;51027;42.162;24.754;2022-09-09T05:17:45;24.02;;;12.18;;
64615;SDS011;51027;42.162;24.754;2022-09-09T05:20:11;21.52;;;11.90;;
64615;SDS011;51027;42.162;24.754;2022-09-09T05:22:37;18.70;;;11.07;;
64615;SDS011;51027;42.162;24.754;2022-09-09T05:25:02;20.33;;;11.65;;
64615;SDS011;51027;42.162;24.754;2022-09-09T05:27:28;21.50;;;11.27;;
64615;SDS011;51027;42.162;24.754;2022-09-09T05:29:56;20.77;;;12.25;;
64615;SDS011;51027;42.162;24.754;2022-09-09T05:32:22;21.85;;;12.30;;
64615;SDS011;51027;42.162;24.754;2022-09-09T05:34:48;22.40;;;11.55;;
64615;SDS011;51027;42.162;24.754;2022-09-09T05:37:13;19.98;;;11.50;;
64615;SDS011;51027;42.162;24.754;2022-09-09T05:39:39;20.42;;;11.75;;
64615;SDS011;51027;42.162;24.754;2022-09-09T05:42:04;20.58;;;11.65;;
64615;SDS011;51027;42.162;24.754;2022-09-09T05:44:30;22.52;;;11.85;;
64615;SDS011;51027;42.162;24.754;2022-09-09T05:46:56;20.55;;;11.85;;
64615;SDS011;51027;42.162;24.754;2022-09-09T05:49:23;20.35;;;11.50;;
64615;SDS011;51027;42.162;24.754;2022-09-09T05:51:49;20.13;;;11.73;;
64615;SDS011;51027;42.162;24.754;2022-09-09T05:54:15;22.40;;;12.80;;
64615;SDS011;51027;42.162;24.754;2022-09-09T05:56:41;20.83;;;12.60;;
64615;SDS011;51027;42.162;24.754;2022-09-09T05:59:07;20.38;;;11.80;;
64615;SDS011;51027;42.162;24.754;2022-09-09T06:01:34;22.30;;;11.35;;
64615;SDS011;51027;42.162;24.754;2022-09-09T06:04:01;29.60;;;12.60;;
64615;SDS011;51027;42.162;24.754;2022-09-09T06:06:30;23.05;;;12.10;;
64615;SDS011;51027;42.162;24.754;2022-09-09T06:09:01;22.05;;;11.98;;
64615;SDS011;51027;42.162;24.754;2022-09-09T06:11:31;21.35;;;11.02;;
64615;SDS011;51027;42.162;24.754;2022-09-09T06:13:57;21.40;;;11.15;;
64615;SDS011;51027;42.162;24.754;2022-09-09T06:16:24;22.65;;;11.50;;
64615;SDS011;51027;42.162;24.754;2022-09-09T06:18:51;26.88;;;11.73;;
64615;SDS011;51027;42.162;24.754;2022-09-09T06:21:22;23.63;;;10.88;;
64615;SDS011;51027;42.162;24.754;2022-09-09T06:23:49;21.25;;;10.50;;
64615;SDS011;51027;42.162;24.754;2022-09-09T06:26:17;21.70;;;11.05;;
64615;SDS011;51027;42.162;24.754;2022-09-09T06:28:44;19.08;;;10.30;;
64615;SDS011;51027;42.162;24.754;2022-09-09T06:31:12;22.27;;;10.38;;
64615;SDS011;51027;42.162;24.754;2022-09-09T06:33:39;19.85;;;10.13;;
64615;SDS011;51027;42.162;24.754;2022-09-09T06:36:09;19.33;;;9.75;;
64615;SDS011;51027;42.162;24.754;2022-09-09T06:41:02;17.13;;;9.80;;
64615;SDS011;51027;42.162;24.754;2022-09-09T06:43:28;17.77;;;9.43;;
64615;SDS011;51027;42.162;24.754;2022-09-09T06:45:57;19.25;;;10.35;;
64615;SDS011;51027;42.162;24.754;2022-09-09T06:48:24;22.65;;;11.10;;
64615;SDS011;51027;42.162;24.754;2022-09-09T06:50:51;19.13;;;10.57;;
64615;SDS011;51027;42.162;24.754;2022-09-09T06:53:27;21.27;;;11.15;;
64615;SDS011;51027;42.162;24.754;2022-09-09T06:55:52;19.17;;;11.27;;
64615;SDS011;51027;42.162;24.754;2022-09-09T06:58:18;19.95;;;10.95;;
64615;SDS011;51027;42.162;24.754;2022-09-09T07:00:43;22.30;;;10.88;;
64615;SDS011;51027;42.162;24.754;2022-09-09T07:03:09;19.52;;;11.38;;
64615;SDS011;51027;42.162;24.754;2022-09-09T07:05:35;21.73;;;12.15;;
64615;SDS011;51027;42.162;24.754;2022-09-09T07:08:00;23.38;;;12.10;;
64615;SDS011;51027;42.162;24.754;2022-09-09T07:10:27;20.92;;;11.45;;
64615;SDS011;51027;42.162;24.754;2022-09-09T07:12:52;19.88;;;11.63;;
64615;SDS011;51027;42.162;24.754;2022-09-09T07:15:18;21.52;;;11.40;;
64615;SDS011;51027;42.162;24.754;2022-09-09T07:17:45;23.30;;;11.95;;
64615;SDS011;51027;42.162;24.754;2022-09-09T07:20:11;22.92;;;11.88;;
64615;SDS011;51027;42.162;24.754;2022-09-09T07:22:37;31.58;;;13.98;;
64615;SDS011;51027;42.162;24.754;2022-09-09T07:25:03;20.30;;;11.43;;
64615;SDS011;51027;42.162;24.754;2022-09-09T07:27:28;18.38;;;9.90;;
64615;SDS011;51027;42.162;24.754;2022-09-09T07:29:55;25.58;;;11.35;;
64615;SDS011;51027;42.162;24.754;2022-09-09T07:32:20;31.83;;;11.98;;
64615;SDS011;51027;42.162;24.754;2022-09-09T07:34:45;18.50;;;10.55;;
64615;SDS011;51027;42.162;24.754;2022-09-09T07:37:12;19.02;;;10.10;;
64615;SDS011;51027;42.162;24.754;2022-09-09T07:39:39;22.23;;;10.38;;
64615;SDS011;51027;42.162;24.754;2022-09-09T07:42:04;24.52;;;11.00;;
64615;SDS011;51027;42.162;24.754;2022-09-09T07:44:30;25.38;;;11.65;;
64615;SDS011;51027;42.162;24.754;2022-09-09T07:46:59;22.17;;;10.02;;
64615;SDS011;51027;42.162;24.754;2022-09-09T07:49:25;20.08;;;10.13;;
64615;SDS011;51027;42.162;24.754;2022-09-09T07:51:51;20.75;;;9.68;;
64615;SDS011;51027;42.162;24.754;2022-09-09T07:54:17;20.70;;;10.43;;
64615;SDS011;51027;42.162;24.754;2022-09-09T07:56:45;28.45;;;10.50;;
64615;SDS011;51027;42.162;24.754;2022-09-09T07:59:11;18.77;;;10.20;;
64615;SDS011;51027;42.162;24.754;2022-09-09T08:01:42;27.15;;;10.13;;
64615;SDS011;51027;42.162;24.754;2022-09-09T08:04:10;17.58;;;9.35;;
64615;SDS011;51027;42.162;24.754;2022-09-09T08:06:41;19.55;;;9.80;;
64615;SDS011;51027;42.162;24.754;2022-09-09T08:09:11;19.60;;;9.95;;
64615;SDS011;51027;42.162;24.754;2022-09-09T08:11:37;18.23;;;9.57;;
64615;SDS011;51027;42.162;24.754;2022-09-09T08:14:04;18.33;;;8.77;;
64615;SDS011;51027;42.162;24.754;2022-09-09T08:16:30;19.65;;;10.05;;
64615;SDS011;51027;42.162;24.754;2022-09-09T08:18:57;19.60;;;9.50;;
64615;SDS011;51027;42.162;24.754;2022-09-09T08:21:24;21.35;;;8.90;;
64615;SDS011;51027;42.162;24.754;2022-09-09T08:23:54;17.85;;;8.60;;
64615;SDS011;51027;42.162;24.754;2022-09-09T08:26:22;19.42;;;8.48;;
64615;SDS011;51027;42.162;24.754;2022-09-09T08:28:49;22.45;;;9.23;;
64615;SDS011;51027;42.162;24.754;2022-09-09T08:31:18;19.02;;;8.52;;
64615;SDS011;51027;42.162;24.754;2022-09-09T08:33:45;17.33;;;7.75;;
64615;SDS011;51027;42.162;24.754;2022-09-09T08:36:13;16.60;;;7.95;;
64615;SDS011;51027;42.162;24.754;2022-09-09T08:38:50;18.52;;;8.02;;
64615;SDS011;51027;42.162;24.754;2022-09-09T08:44:05;20.70;;;8.18;;
64615;SDS011;51027;42.162;24.754;2022-09-09T08:54:55;15.90;;;7.60;;
64615;SDS011;51027;42.162;24.754;2022-09-09T08:57:26;18.15;;;8.02;;
64615;SDS011;51027;42.162;24.754;2022-09-09T08:59:53;17.73;;;8.43;;
64615;SDS011;51027;42.162;24.754;2022-09-09T09:02:26;18.67;;;8.02;;
64615;SDS011;51027;42.162;24.754;2022-09-09T09:07:33;15.68;;;7.57;;
64615;SDS011;51027;42.162;24.754;2022-09-09T09:10:03;17.80;;;8.00;;
64615;SDS011;51027;42.162;24.754;2022-09-09T09:12:44;19.27;;;9.05;;
64615;SDS011;51027;42.162;24.754;2022-09-09T09:15:23;16.52;;;8.10;;
64615;SDS011;51027;42.162;24.754;2022-09-09T09:17:50;16.60;;;7.87;;
64615;SDS011;51027;42.162;24.754;2022-09-09T09:20:16;16.80;;;8.63;;
64615;SDS011;51027;42.162;24.754;2022-09-09T09:22:50;18.10;;;7.35;;
64615;SDS011;51027;42.162;24.754;2022-09-09T09:25:22;18.60;;;7.60;;
64615;SDS011;51027;42.162;24.754;2022-09-09T09:28:00;17.20;;;8.57;;
64615;SDS011;51027;42.162;24.754;2022-09-09T09:36:06;18.48;;;8.80;;
64615;SDS011;51027;42.162;24.754;2022-09-09T09:38:33;16.75;;;8.32;;
64615;SDS011;51027;42.162;24.754;2022-09-09T09:41:00;18.15;;;8.90;;
64615;SDS011;51027;42.162;24.754;2022-09-09T09:46:04;17.17;;;8.07;;
64615;SDS011;51027;42.162;24.754;2022-09-09T09:48:43;18.90;;;8.85;;
64615;SDS011;51027;42.162;24.754;2022-09-09T09:51:09;18.65;;;8.20;;
64615;SDS011;51027;42.162;24.754;2022-09-09T09:53:38;19.75;;;10.07;;
64615;SDS011;51027;42.162;24.754;2022-09-09T09:56:08;20.20;;;9.40;;
64615;SDS011;51027;42.162;24.754;2022-09-09T10:01:38;21.33;;;8.88;;
64615;SDS011;51027;42.162;24.754;2022-09-09T10:06:41;17.02;;;8.73;;
64615;SDS011;51027;42.162;24.754;2022-09-09T10:09:23;18.33;;;9.57;;
64615;SDS011;51027;42.162;24.754;2022-09-09T10:15:06;21.77;;;9.75;;
64615;SDS011;51027;42.162;24.754;2022-09-09T10:38:01;22.90;;;10.93;;
64615;SDS011;51027;42.162;24.754;2022-09-09T10:43:33;17.63;;;8.63;;
64615;SDS011;51027;42.162;24.754;2022-09-09T10:49:07;19.67;;;8.52;;
64615;SDS011;51027;42.162;24.754;2022-09-09T10:56:44;14.93;;;7.80;;
64615;SDS011;51027;42.162;24.754;2022-09-09T10:59:20;17.33;;;8.75;;
64615;SDS011;51027;42.162;24.754;2022-09-09T11:01:58;18.90;;;9.38;;
64615;SDS011;51027;42.162;24.754;2022-09-09T11:04:32;17.65;;;8.75;;
64615;SDS011;51027;42.162;24.754;2022-09-09T11:07:05;18.92;;;9.10;;
64615;SDS011;51027;42.162;24.754;2022-09-09T11:09:38;17.27;;;8.52;;
64615;SDS011;51027;42.162;24.754;2022-09-09T11:12:10;15.55;;;8.32;;
64615;SDS011;51027;42.162;24.754;2022-09-09T11:14:42;16.65;;;8.25;;
64615;SDS011;51027;42.162;24.754;2022-09-09T11:17:15;15.55;;;7.68;;
64615;SDS011;51027;42.162;24.754;2022-09-09T11:19:45;14.75;;;7.05;;
64615;SDS011;51027;42.162;24.754;2022-09-09T11:24:57;17.98;;;8.00;;
64615;SDS011;51027;42.162;24.754;2022-09-09T11:27:32;16.30;;;7.78;;
64615;SDS011;51027;42.162;24.754;2022-09-09T11:38:27;43.47;;;12.75;;
64615;SDS011;51027;42.162;24.754;2022-09-09T11:41:01;15.82;;;6.85;;
64615;SDS011;51027;42.162;24.754;2022-09-09T11:46:03;16.58;;;7.15;;
64615;SDS011;51027;42.162;24.754;2022-09-09T11:51:04;15.55;;;6.85;;
64615;SDS011;51027;42.162;24.754;2022-09-09T11:53:32;21.48;;;7.53;;
64615;SDS011;51027;42.162;24.754;2022-09-09T11:56:03;16.98;;;7.13;;
64615;SDS011;51027;42.162;24.754;2022-09-09T11:58:31;15.20;;;6.45;;
64615;SDS011;51027;42.162;24.754;2022-09-09T12:01:01;14.35;;;6.30;;
64615;SDS011;51027;42.162;24.754;2022-09-09T12:03:46;17.65;;;7.93;;
64615;SDS011;51027;42.162;24.754;2022-09-09T12:06:15;15.43;;;6.90;;
64615;SDS011;51027;42.162;24.754;2022-09-09T12:08:46;17.33;;;6.85;;
64615;SDS011;51027;42.162;24.754;2022-09-09T12:11:26;17.98;;;7.47;;
64615;SDS011;51027;42.162;24.754;2022-09-09T12:13:57;17.38;;;7.07;;
64615;SDS011;51027;42.162;24.754;2022-09-09T12:16:29;15.23;;;7.20;;
64615;SDS011;51027;42.162;24.754;2022-09-09T12:19:03;16.10;;;6.80;;
64615;SDS011;51027;42.162;24.754;2022-09-09T12:25:00;20.30;;;8.00;;
64615;SDS011;51027;42.162;24.754;2022-09-09T12:30:43;15.52;;;7.35;;
64615;SDS011;51027;42.162;24.754;2022-09-09T12:33:17;14.50;;;6.70;;
64615;SDS011;51027;42.162;24.754;2022-09-09T12:35:44;16.35;;;7.32;;
64615;SDS011;51027;42.162;24.754;2022-09-09T12:38:38;17.33;;;8.15;;
64615;SDS011;51027;42.162;24.754;2022-09-09T12:41:04;14.25;;;6.93;;
64615;SDS011;51027;42.162;24.754;2022-09-09T12:43:30;15.15;;;7.88;;
64615;SDS011;51027;42.162;24.754;2022-09-09T12:45:56;14.73;;;7.55;;
64615;SDS011;51027;42.162;24.754;2022-09-09T12:48:44;15.52;;;6.78;;
64615;SDS011;51027;42.162;24.754;2022-09-09T12:51:26;14.95;;;7.30;;
64615;SDS011;51027;42.162;24.754;2022-09-09T12:53:55;17.63;;;7.47;;
64615;SDS011;51027;42.162;24.754;2022-09-09T12:56:22;15.63;;;7.38;;
64615;SDS011;51027;42.162;24.754;2022-09-09T12:58:52;15.40;;;7.60;;
64615;SDS011;51027;42.162;24.754;2022-09-09T13:01:20;15.68;;;7.15;;
64615;SDS011;51027;42.162;24.754;2022-09-09T13:03:53;15.52;;;7.03;;
64615;SDS011;51027;42.162;24.754;2022-09-09T13:06:30;16.23;;;7.60;;
64615;SDS011;51027;42.162;24.754;2022-09-09T13:08:58;14.88;;;7.40;;
64615;SDS011;51027;42.162;24.754;2022-09-09T13:14:00;16.13;;;7.50;;
64615;SDS011;51027;42.162;24.754;2022-09-09T13:16:27;18.48;;;7.97;;
64615;SDS011;51027;42.162;24.754;2022-09-09T13:18:58;16.13;;;7.95;;
64615;SDS011;51027;42.162;24.754;2022-09-09T13:21:39;17.15;;;8.00;;
64615;SDS011;51027;42.162;24.754;2022-09-09T13:24:05;15.30;;;7.68;;
64615;SDS011;51027;42.162;24.754;2022-09-09T13:26:53;16.60;;;8.02;;
64615;SDS011;51027;42.162;24.754;2022-09-09T13:29:22;15.93;;;8.90;;
64615;SDS011;51027;42.162;24.754;2022-09-09T13:31:47;18.40;;;8.52;;
64615;SDS011;51027;42.162;24.754;2022-09-09T13:34:14;15.95;;;7.57;;
64615;SDS011;51027;42.162;24.754;2022-09-09T13:36:56;17.38;;;7.80;;
64615;SDS011;51027;42.162;24.754;2022-09-09T13:39:27;19.20;;;8.10;;
64615;SDS011;51027;42.162;24.754;2022-09-09T13:41:53;17.15;;;8.90;;
64615;SDS011;51027;42.162;24.754;2022-09-09T13:44:28;16.95;;;8.07;;
64615;SDS011;51027;42.162;24.754;2022-09-09T13:47:03;17.35;;;7.90;;
64615;SDS011;51027;42.162;24.754;2022-09-09T13:49:42;17.65;;;7.93;;
64615;SDS011;51027;42.162;24.754;2022-09-09T13:52:11;15.98;;;8.00;;
64615;SDS011;51027;42.162;24.754;2022-09-09T13:54:39;15.73;;;7.90;;
64615;SDS011;51027;42.162;24.754;2022-09-09T13:57:05;15.15;;;8.27;;
64615;SDS011;51027;42.162;24.754;2022-09-09T13:59:38;15.13;;;7.50;;
64615;SDS011;51027;42.162;24.754;2022-09-09T14:02:04;17.63;;;8.00;;
64615;SDS011;51027;42.162;24.754;2022-09-09T14:04:29;16.02;;;7.78;;
64615;SDS011;51027;42.162;24.754;2022-09-09T14:06:55;15.30;;;7.95;;
64615;SDS011;51027;42.162;24.754;2022-09-09T14:09:21;17.13;;;8.27;;
64615;SDS011;51027;42.162;24.754;2022-09-09T14:11:46;17.38;;;7.70;;
64615;SDS011;51027;42.162;24.754;2022-09-09T14:14:12;16.20;;;8.45;;
64615;SDS011;51027;42.162;24.754;2022-09-09T14:16:38;15.48;;;8.18;;
64615;SDS011;51027;42.162;24.754;2022-09-09T14:19:03;15.48;;;7.80;;
64615;SDS011;51027;42.162;24.754;2022-09-09T14:21:29;16.65;;;8.60;;
64615;SDS011;51027;42.162;24.754;2022-09-09T14:23:54;16.10;;;7.88;;
64615;SDS011;51027;42.162;24.754;2022-09-09T14:26:23;16.37;;;9.00;;
64615;SDS011;51027;42.162;24.754;2022-09-09T14:28:49;15.88;;;8.50;;
64615;SDS011;51027;42.162;24.754;2022-09-09T14:31:16;18.15;;;9.30;;
64615;SDS011;51027;42.162;24.754;2022-09-09T14:33:42;20.02;;;10.93;;
64615;SDS011;51027;42.162;24.754;2022-09-09T14:36:08;18.23;;;9.23;;
64615;SDS011;51027;42.162;24.754;2022-09-09T14:38:34;17.08;;;8.80;;
64615;SDS011;51027;42.162;24.754;2022-09-09T14:41:05;16.33;;;8.85;;
64615;SDS011;51027;42.162;24.754;2022-09-09T14:43:31;15.38;;;8.57;;
64615;SDS011;51027;42.162;24.754;2022-09-09T14:45:57;18.30;;;8.90;;
64615;SDS011;51027;42.162;24.754;2022-09-09T14:48:30;17.70;;;8.75;;
64615;SDS011;51027;42.162;24.754;2022-09-09T14:50:56;15.93;;;8.20;;
64615;SDS011;51027;42.162;24.754;2022-09-09T14:53:21;18.35;;;8.77;;
64615;SDS011;51027;42.162;24.754;2022-09-09T14:55:46;17.40;;;8.60;;
64615;SDS011;51027;42.162;24.754;2022-09-09T14:58:13;18.05;;;8.40;;
64615;SDS011;51027;42.162;24.754;2022-09-09T15:00:38;16.02;;;7.78;;
64615;SDS011;51027;42.162;24.754;2022-09-09T15:03:04;16.77;;;9.18;;
64615;SDS011;51027;42.162;24.754;2022-09-09T15:05:29;18.15;;;9.23;;
64615;SDS011;51027;42.162;24.754;2022-09-09T15:07:56;17.08;;;8.20;;
64615;SDS011;51027;42.162;24.754;2022-09-09T15:10:23;20.80;;;9.75;;
64615;SDS011;51027;42.162;24.754;2022-09-09T15:12:49;18.08;;;9.48;;
64615;SDS011;51027;42.162;24.754;2022-09-09T15:15:14;17.85;;;9.82;;
64615;SDS011;51027;42.162;24.754;2022-09-09T15:17:40;19.02;;;9.88;;
64615;SDS011;51027;42.162;24.754;2022-09-09T15:20:05;19.67;;;9.85;;
64615;SDS011;51027;42.162;24.754;2022-09-09T15:22:31;20.77;;;10.38;;
64615;SDS011;51027;42.162;24.754;2022-09-09T15:24:57;18.73;;;10.23;;
64615;SDS011;51027;42.162;24.754;2022-09-09T15:27:23;22.15;;;10.00;;
64615;SDS011;51027;42.162;24.754;2022-09-09T15:29:48;18.35;;;9.50;;
64615;SDS011;51027;42.162;24.754;2022-09-09T15:32:15;17.38;;;9.95;;
64615;SDS011;51027;42.162;24.754;2022-09-09T15:34:40;19.63;;;10.43;;
64615;SDS011;51027;42.162;24.754;2022-09-09T15:37:06;20.35;;;9.32;;
64615;SDS011;51027;42.162;24.754;2022-09-09T15:39:32;18.23;;;9.35;;
64615;SDS011;51027;42.162;24.754;2022-09-09T15:41:57;19.13;;;9.25;;
64615;SDS011;51027;42.162;24.754;2022-09-09T15:44:23;20.80;;;9.35;;
64615;SDS011;51027;42.162;24.754;2022-09-09T15:46:51;19.42;;;9.60;;
64615;SDS011;51027;42.162;24.754;2022-09-09T15:49:19;20.03;;;9.70;;
64615;SDS011;51027;42.162;24.754;2022-09-09T15:51:53;17.08;;;8.45;;
64615;SDS011;51027;42.162;24.754;2022-09-09T15:54:21;16.45;;;8.20;;
64615;SDS011;51027;42.162;24.754;2022-09-09T15:56:57;18.02;;;8.68;;
64615;SDS011;51027;42.162;24.754;2022-09-09T15:59:26;19.75;;;10.35;;
64615;SDS011;51027;42.162;24.754;2022-09-09T16:01:53;18.02;;;8.60;;
64615;SDS011;51027;42.162;24.754;2022-09-09T16:04:20;20.02;;;9.13;;
64615;SDS011;51027;42.162;24.754;2022-09-09T16:06:54;17.70;;;8.45;;
64615;SDS011;51027;42.162;24.754;2022-09-09T16:09:22;16.20;;;8.23;;
64615;SDS011;51027;42.162;24.754;2022-09-09T16:11:47;18.17;;;8.73;;
64615;SDS011;51027;42.162;24.754;2022-09-09T16:14:14;17.08;;;8.45;;
64615;SDS011;51027;42.162;24.754;2022-09-09T16:16:43;16.48;;;8.25;;
64615;SDS011;51027;42.162;24.754;2022-09-09T16:19:10;18.23;;;8.88;;
64615;SDS011;51027;42.162;24.754;2022-09-09T16:21:41;16.40;;;8.35;;
64615;SDS011;51027;42.162;24.754;2022-09-09T16:24:09;18.33;;;8.15;;
64615;SDS011;51027;42.162;24.754;2022-09-09T16:26:37;17.67;;;8.60;;
64615;SDS011;51027;42.162;24.754;2022-09-09T16:29:04;16.38;;;7.97;;
64615;SDS011;51027;42.162;24.754;2022-09-09T16:31:30;17.15;;;8.65;;
64615;SDS011;51027;42.162;24.754;2022-09-09T16:33:59;18.70;;;8.52;;
64615;SDS011;51027;42.162;24.754;2022-09-09T16:36:26;18.30;;;8.77;;
64615;SDS011;51027;42.162;24.754;2022-09-09T16:38:53;21.38;;;9.30;;
64615;SDS011;51027;42.162;24.754;2022-09-09T16:41:20;17.88;;;8.70;;
64615;SDS011;51027;42.162;24.754;2022-09-09T16:43:45;17.52;;;8.65;;
64615;SDS011;51027;42.162;24.754;2022-09-09T16:46:15;18.05;;;8.23;;
64615;SDS011;51027;42.162;24.754;2022-09-09T16:48:43;20.20;;;9.10;;
64615;SDS011;51027;42.162;24.754;2022-09-09T16:51:16;17.92;;;9.00;;
64615;SDS011;51027;42.162;24.754;2022-09-09T16:53:44;20.30;;;8.90;;